Time;durP1;ratioP1;P1;durP2;ratioP2;P2;SDS_P1;SDS_P2;PMS_P1;PMS_P2;Temp;Humidity;BMP_temperature;BMP_pressure;BME280_temperature;BME280_humidity;BME280_pressure;Samples;Min_cycle;Max_cycle;Signal;HPM_P1;HPM_P2
2023/01/27 00:00:49;;;;;;;10.75;3.10;;;;;;;5.72;80.29;101885.91;5059382;28;20079;-65
2023/01/27 00:03:17;;;;;;;14.95;3.55;;;;;;;5.82;78.86;101896.16;5073981;28;20048;-64
2023/01/27 00:05:45;;;;;;;11.00;3.50;;;;;;;5.78;79.17;101887.66;5073005;28;20404;-66
2023/01/27 00:08:13;;;;;;;15.00;3.72;;;;;;;6.00;78.57;101895.91;5075416;28;20511;-64
2023/01/27 00:10:40;;;;;;;12.07;3.22;;;;;;;5.96;77.85;101886.53;5057059;28;20059;-65
2023/01/27 00:13:26;;;;;;;11.80;3.05;;;;;;;5.93;77.38;101887.88;5057564;28;20412;-65
2023/01/27 00:15:54;;;;;;;10.40;2.92;;;;;;;6.05;77.01;101891.28;5040524;28;20574;-66
2023/01/27 00:18:22;;;;;;;9.98;2.88;;;;;;;5.87;77.08;101894.38;5073600;28;20052;-65
2023/01/27 00:26:22;;;;;;;10.65;3.17;;;;;;;6.00;77.87;101885.78;5054604;28;20060;-65
2023/01/27 00:28:50;;;;;;;11.07;2.80;;;;;;;6.10;77.64;101891.34;5054097;28;20049;-65
2023/01/27 00:34:10;;;;;;;13.70;3.70;;;;;;;5.93;78.98;101893.34;5075477;28;20057;-65
2023/01/27 00:36:40;;;;;;;13.98;4.15;;;;;;;6.04;78.78;101895.13;5075472;28;20051;-66
2023/01/27 00:39:09;;;;;;;13.82;2.70;;;;;;;6.15;78.36;101888.72;5079447;28;20060;-65
2023/01/27 00:41:39;;;;;;;18.50;3.75;;;;;;;5.90;79.68;101887.53;5070786;28;20056;-65
2023/01/27 00:44:11;;;;;;;17.85;3.85;;;;;;;5.99;79.50;101892.34;5057098;28;20061;-64
2023/01/27 00:46:40;;;;;;;13.35;2.67;;;;;;;6.00;79.82;101887.69;5052039;28;20072;-64
2023/01/27 00:49:09;;;;;;;13.30;2.58;;;;;;;5.97;78.74;101897.22;5078805;28;20052;-65
2023/01/27 00:51:37;;;;;;;16.75;3.15;;;;;;;5.73;80.01;101888.41;5076528;28;20060;-65
2023/01/27 00:54:04;;;;;;;15.02;2.67;;;;;;;5.77;80.35;101885.97;5078662;28;20053;-64
2023/01/27 00:56:31;;;;;;;17.42;3.58;;;;;;;5.66;80.13;101874.09;5074152;28;20499;-64
2023/01/27 00:58:59;;;;;;;15.10;2.75;;;;;;;5.75;79.81;101874.50;5070431;28;20059;-65
2023/01/27 01:01:27;;;;;;;15.88;3.35;;;;;;;5.78;79.43;101873.97;5076774;28;20067;-65
2023/01/27 01:03:55;;;;;;;14.65;2.72;;;;;;;5.66;78.85;101871.38;5065587;28;20049;-65
2023/01/27 01:06:22;;;;;;;12.18;3.10;;;;;;;5.74;78.61;101872.81;5068065;28;20067;-64
2023/01/27 01:08:52;;;;;;;15.85;2.78;;;;;;;5.79;78.94;101875.63;5077739;28;20056;-65
2023/01/27 01:11:20;;;;;;;17.40;3.28;;;;;;;5.88;77.52;101878.75;5074645;28;20048;-64
2023/01/27 01:13:48;;;;;;;12.45;2.72;;;;;;;5.93;77.73;101876.94;5078666;28;20068;-64
2023/01/27 01:16:21;;;;;;;14.45;2.60;;;;;;;5.91;77.96;101873.63;5077241;28;20052;-64
2023/01/27 01:18:49;;;;;;;14.95;3.30;;;;;;;5.99;77.33;101872.34;5058091;28;20052;-64
2023/01/27 01:21:16;;;;;;;14.68;3.17;;;;;;;5.93;77.02;101871.47;5069940;28;20072;-65
2023/01/27 01:23:44;;;;;;;13.60;2.60;;;;;;;5.78;77.50;101873.97;5076798;28;20540;-65
2023/01/27 01:26:14;;;;;;;22.60;3.00;;;;;;;5.79;78.21;101867.41;5075443;28;20070;-64
2023/01/27 01:28:43;;;;;;;12.55;2.70;;;;;;;5.84;78.13;101862.03;5072269;28;20048;-64
2023/01/27 01:31:15;;;;;;;14.70;3.25;;;;;;;5.72;78.42;101858.56;5059731;28;20060;-65
2023/01/27 01:33:42;;;;;;;19.13;3.42;;;;;;;5.82;78.96;101864.19;5057809;28;20049;-65
2023/01/27 01:36:15;;;;;;;15.55;3.10;;;;;;;5.82;79.36;101877.03;5064364;28;20044;-65
2023/01/27 01:38:43;;;;;;;14.57;4.00;;;;;;;5.86;79.20;101870.00;5075873;28;20060;-65
2023/01/27 01:41:13;;;;;;;14.63;3.00;;;;;;;5.84;78.93;101870.25;5071440;28;20068;-66
2023/01/27 01:43:41;;;;;;;12.82;2.70;;;;;;;5.86;79.02;101862.63;5067464;28;20055;-65
2023/01/27 01:46:10;;;;;;;14.23;3.10;;;;;;;5.90;78.06;101852.84;5058862;28;20052;-65
2023/01/27 01:48:55;;;;;;;16.38;3.47;;;;;;;5.66;78.69;101854.13;5063614;28;20049;-65
2023/01/27 01:51:41;;;;;;;12.52;2.92;;;;;;;5.82;78.63;101852.44;5067371;28;20049;-65
2023/01/27 01:54:20;;;;;;;17.55;3.42;;;;;;;5.83;77.76;101854.94;5058008;28;20443;-66
2023/01/27 01:56:55;;;;;;;14.98;2.78;;;;;;;5.93;77.64;101859.72;5024312;28;20056;-65
2023/01/27 01:59:31;;;;;;;12.88;2.70;;;;;;;5.67;78.03;101856.63;5055880;28;20048;-65
2023/01/27 02:02:02;;;;;;;12.65;3.40;;;;;;;5.46;78.54;101859.31;5072212;28;20049;-65
2023/01/27 02:04:41;;;;;;;18.17;3.45;;;;;;;5.62;78.60;101858.44;5068928;28;20055;-65
2023/01/27 02:07:27;;;;;;;21.23;2.78;;;;;;;5.65;78.48;101857.94;5073888;28;20064;-65
2023/01/27 02:09:55;;;;;;;17.20;3.33;;;;;;;5.68;78.85;101851.97;5070152;28;20049;-64
2023/01/27 02:12:22;;;;;;;16.00;3.30;;;;;;;5.70;78.32;101853.38;5075609;28;20055;-65
2023/01/27 02:14:50;;;;;;;13.95;3.05;;;;;;;5.72;78.46;101853.94;5067803;28;20507;-65
2023/01/27 02:17:17;;;;;;;18.10;3.10;;;;;;;5.84;77.64;101842.09;5056081;28;20048;-65
2023/01/27 02:19:54;;;;;;;12.50;2.83;;;;;;;5.96;76.91;101849.09;5074302;28;20052;-65
2023/01/27 02:22:35;;;;;;;12.88;2.97;;;;;;;5.77;78.01;101836.78;5074612;28;20059;-65
2023/01/27 02:25:11;;;;;;;18.55;3.40;;;;;;;5.70;77.91;101842.44;5075184;28;20055;-65
2023/01/27 02:27:39;;;;;;;14.27;3.40;;;;;;;5.84;77.87;101831.97;5075497;28;20053;-65
2023/01/27 02:30:07;;;;;;;16.65;3.63;;;;;;;5.69;77.41;101835.31;5058378;28;20052;-65
2023/01/27 02:32:35;;;;;;;16.10;3.30;;;;;;;5.67;78.15;101832.00;5058563;28;20061;-65
2023/01/27 02:35:03;;;;;;;18.00;3.13;;;;;;;5.52;77.98;101831.00;5055703;28;20052;-65
2023/01/27 02:37:31;;;;;;;14.48;3.17;;;;;;;5.55;78.36;101825.84;5069946;28;20051;-65
2023/01/27 02:40:01;;;;;;;15.73;3.10;;;;;;;5.86;77.80;101831.75;5055503;28;20049;-66
2023/01/27 02:42:29;;;;;;;15.57;3.22;;;;;;;5.80;77.26;101841.75;5055527;28;20048;-65
2023/01/27 02:44:57;;;;;;;17.55;2.78;;;;;;;5.71;77.23;101833.16;5041533;28;20052;-65
2023/01/27 02:47:25;;;;;;;13.52;3.08;;;;;;;5.65;77.15;101828.72;5073297;28;20048;-64
2023/01/27 02:49:53;;;;;;;16.65;3.00;;;;;;;5.75;76.91;101817.91;5068902;28;20049;-64
2023/01/27 02:52:21;;;;;;;16.65;3.30;;;;;;;5.76;77.15;101832.41;5074742;28;20063;-65
2023/01/27 02:54:48;;;;;;;21.73;4.57;;;;;;;5.59;77.85;101840.66;5074455;28;20051;-65
2023/01/27 02:57:19;;;;;;;14.50;2.92;;;;;;;5.51;78.42;101832.06;5069840;28;20468;-65
2023/01/27 03:00:08;;;;;;;11.23;2.55;;;;;;;5.49;78.74;101823.31;5055180;28;20061;-65
2023/01/27 03:02:36;;;;;;;15.48;3.00;;;;;;;5.51;78.98;101821.13;5072445;28;20056;-65
2023/01/27 03:05:03;;;;;;;15.10;3.60;;;;;;;5.59;77.69;101831.63;5055482;28;20053;-65
2023/01/27 03:07:31;;;;;;;17.10;3.05;;;;;;;5.54;77.21;101823.38;5072408;28;20056;-65
2023/01/27 03:09:58;;;;;;;13.68;3.08;;;;;;;5.41;77.35;101816.38;5056218;28;20048;-66
2023/01/27 03:12:25;;;;;;;15.20;2.97;;;;;;;5.53;76.88;101827.16;5059990;28;20068;-64
2023/01/27 03:20:25;;;;;;;18.15;3.45;;;;;;;5.66;77.79;101822.19;5042351;28;20052;-64
2023/01/27 03:22:52;;;;;;;17.95;2.97;;;;;;;5.63;77.71;101811.72;5042649;28;20421;-65
2023/01/27 03:25:22;;;;;;;;;;;;;;;5.53;77.68;101808.03;5059173;28;20053;-65
2023/01/27 03:27:50;;;;;;;15.05;3.22;;;;;;;5.66;77.37;101813.97;5058812;28;19928;-65
2023/01/27 03:30:26;;;;;;;17.80;2.80;;;;;;;5.62;77.51;101820.19;5040846;28;20049;-65
2023/01/27 03:33:06;;;;;;;12.60;2.65;;;;;;;5.57;76.86;101810.03;5055678;28;20052;-65
2023/01/27 03:47:11;;;;;;;14.95;2.85;;;;;;;5.42;76.51;101814.47;5061082;28;20059;-66
2023/01/27 03:49:38;;;;;;;14.45;3.17;;;;;;;5.43;77.02;101818.84;5053929;28;20041;-65
2023/01/27 03:52:06;;;;;;;17.27;3.80;;;;;;;5.52;76.44;101825.53;5046276;28;20056;-64
2023/01/27 03:54:33;;;;;;;11.27;3.40;;;;;;;5.70;76.20;101812.38;5056431;28;20051;-65
2023/01/27 03:57:04;;;;;;;12.82;3.22;;;;;;;5.89;76.27;101812.09;5069332;28;20049;-65
2023/01/27 03:59:33;;;;;;;11.85;2.53;;;;;;;5.87;75.05;101820.53;5069281;28;20044;-65
2023/01/27 04:07:34;;;;;;;13.77;3.40;;;;;;;5.88;75.26;101822.19;5057442;28;20057;-65
2023/01/27 04:10:03;;;;;;;17.85;3.47;;;;;;;5.87;75.14;101809.59;5053596;28;20452;-65
2023/01/27 04:12:31;;;;;;;13.00;3.22;;;;;;;5.77;75.07;101816.81;5052247;28;20503;-65
2023/01/27 04:14:58;;;;;;;14.45;3.70;;;;;;;5.84;75.48;101812.84;5055410;28;20057;-65
2023/01/27 04:17:25;;;;;;;16.55;3.63;;;;;;;5.73;76.04;101819.25;5048842;28;20147;-65
2023/01/27 04:19:53;;;;;;;16.48;3.75;;;;;;;5.80;75.87;101822.63;5037423;28;20053;-65
2023/01/27 04:22:20;;;;;;;20.17;3.78;;;;;;;5.96;75.55;101804.50;5061835;28;20040;-65
2023/01/27 04:24:49;;;;;;;14.27;3.60;;;;;;;5.92;75.46;101819.75;5073592;28;20056;-64
2023/01/27 04:27:17;;;;;;;9.98;3.25;;;;;;;5.67;76.08;101822.97;5073068;28;20067;-65
2023/01/27 04:29:45;;;;;;;14.82;3.10;;;;;;;5.71;76.10;101816.78;5073863;28;20755;-65
2023/01/27 04:32:12;;;;;;;13.32;2.88;;;;;;;5.70;75.71;101806.09;5073523;28;20049;-63
2023/01/27 04:34:40;;;;;;;16.90;3.55;;;;;;;5.71;75.91;101803.09;5072605;28;20056;-64
2023/01/27 04:37:09;;;;;;;11.88;3.40;;;;;;;5.93;75.58;101810.50;5058762;28;20045;-64
2023/01/27 04:39:36;;;;;;;11.30;2.70;;;;;;;5.65;75.22;101814.22;5069964;28;20067;-65
2023/01/27 04:42:03;;;;;;;13.57;2.97;;;;;;;5.64;75.74;101812.56;5068320;28;20056;-65
2023/01/27 04:44:31;;;;;;;14.20;2.80;;;;;;;5.61;75.84;101805.69;5056452;28;20060;-66
2023/01/27 04:46:58;;;;;;;14.07;2.65;;;;;;;5.45;76.03;101800.28;5067897;28;20063;-64
2023/01/27 04:49:25;;;;;;;14.20;2.88;;;;;;;5.42;75.72;101803.53;5069184;28;20045;-65
2023/01/27 04:51:54;;;;;;;13.65;2.88;;;;;;;5.56;75.57;101802.09;5051040;28;20404;-65
2023/01/27 04:54:21;;;;;;;14.10;3.20;;;;;;;5.66;74.49;101802.22;5056515;28;20404;-65
2023/01/27 04:56:58;;;;;;;9.63;2.58;;;;;;;5.67;75.12;101791.03;5074644;28;20549;-65
2023/01/27 04:59:26;;;;;;;16.35;2.92;;;;;;;5.80;74.38;101791.72;5061580;28;20072;-65
2023/01/27 05:01:53;;;;;;;18.17;3.58;;;;;;;5.64;74.56;101796.16;5070251;28;20063;-65
2023/01/27 05:04:21;;;;;;;12.68;2.72;;;;;;;5.66;73.90;101788.53;5057106;28;20484;-65
2023/01/27 05:06:48;;;;;;;15.43;2.72;;;;;;;5.72;73.12;101791.06;5067835;28;20048;-65
2023/01/27 05:09:15;;;;;;;14.65;2.83;;;;;;;5.78;73.27;101783.78;5070198;28;20052;-65
2023/01/27 05:11:43;;;;;;;17.48;2.92;;;;;;;5.88;72.84;101783.91;5049615;28;20051;-64
2023/01/27 05:14:10;;;;;;;14.32;3.17;;;;;;;5.88;73.55;101783.91;5057094;28;20064;-65
2023/01/27 05:16:38;;;;;;;17.52;3.30;;;;;;;5.80;73.15;101789.81;5058806;28;20059;-64
2023/01/27 05:19:06;;;;;;;11.77;2.88;;;;;;;5.64;73.60;101796.16;5054310;28;20500;-65
2023/01/27 05:21:33;;;;;;;17.67;2.55;;;;;;;5.51;74.59;101789.16;5066546;28;20044;-65
2023/01/27 05:24:01;;;;;;;14.68;3.17;;;;;;;5.72;74.15;101790.25;5076602;28;20048;-65
2023/01/27 05:26:28;;;;;;;18.27;3.42;;;;;;;5.69;73.86;101794.34;5072034;28;20056;-65
2023/01/27 05:28:57;;;;;;;13.82;2.60;;;;;;;5.54;74.53;101799.59;5076377;28;20048;-65
2023/01/27 05:31:27;;;;;;;13.80;2.65;;;;;;;5.58;73.83;101786.25;5053029;28;20057;-65
2023/01/27 05:33:56;;;;;;;11.95;2.50;;;;;;;5.68;73.60;101797.31;5075585;28;20047;-65
2023/01/27 05:36:25;;;;;;;14.90;2.58;;;;;;;5.53;74.25;101792.47;5043442;28;20055;-66
2023/01/27 05:38:53;;;;;;;15.27;3.00;;;;;;;5.66;73.95;101794.00;5077339;28;20514;-65
2023/01/27 05:41:21;;;;;;;15.20;2.60;;;;;;;5.74;74.01;101791.66;5073389;28;20056;-66
2023/01/27 05:43:53;;;;;;;14.65;2.63;;;;;;;5.65;73.87;101792.34;5059978;28;20045;-64
2023/01/27 05:46:23;;;;;;;12.73;2.30;;;;;;;5.81;74.03;101793.34;5072108;28;20056;-65
2023/01/27 05:48:58;;;;;;;16.20;2.58;;;;;;;5.77;74.37;101795.75;5075381;28;20052;-66
2023/01/27 05:51:28;;;;;;;13.00;2.30;;;;;;;5.80;73.90;101789.81;5059504;28;20060;-65
2023/01/27 05:53:56;;;;;;;11.15;2.13;;;;;;;5.81;73.88;101794.19;5059724;28;20526;-65
2023/01/27 05:56:25;;;;;;;17.15;2.55;;;;;;;5.79;73.99;101798.28;5059056;28;20373;-66
2023/01/27 05:58:59;;;;;;;16.02;2.80;;;;;;;5.91;73.05;101797.06;5056789;28;20060;-66
2023/01/27 06:01:30;;;;;;;18.23;3.75;;;;;;;5.82;73.16;101790.38;5076925;28;20052;-65
2023/01/27 06:03:57;;;;;;;13.55;2.40;;;;;;;5.89;73.38;101791.03;5063384;28;20044;-65
2023/01/27 06:06:27;;;;;;;17.85;2.70;;;;;;;5.86;72.88;101791.53;5068096;28;20059;-65
2023/01/27 06:08:54;;;;;;;14.82;2.50;;;;;;;5.83;73.58;101791.22;5076238;28;20048;-67
2023/01/27 06:11:23;;;;;;;9.63;2.55;;;;;;;5.70;73.92;101789.69;5058992;28;20060;-68
2023/01/27 06:13:51;;;;;;;16.42;3.15;;;;;;;5.96;73.96;101802.59;5077232;28;20052;-70
2023/01/27 06:16:20;;;;;;;13.80;3.00;;;;;;;5.87;73.37;101792.38;5074681;28;20059;-70
2023/01/27 06:18:48;;;;;;;12.52;3.20;;;;;;;5.79;73.46;101799.06;5058284;28;20455;-69
2023/01/27 06:21:17;;;;;;;15.23;2.90;;;;;;;5.64;73.31;101805.19;5065709;28;20507;-69
2023/01/27 06:23:44;;;;;;;11.98;3.05;;;;;;;5.67;73.70;101801.94;5069048;28;20614;-68
2023/01/27 06:26:15;;;;;;;11.75;2.65;;;;;;;5.53;74.23;101803.41;5066853;28;20049;-69
2023/01/27 06:28:42;;;;;;;19.13;3.75;;;;;;;5.64;74.59;101807.09;5077355;28;20052;-68
2023/01/27 06:31:12;;;;;;;18.42;3.17;;;;;;;5.75;73.62;101800.69;5076774;28;20045;-69
2023/01/27 06:33:40;;;;;;;18.60;3.15;;;;;;;6.08;72.69;101814.22;5072289;28;20055;-70
2023/01/27 06:36:10;;;;;;;13.32;2.88;;;;;;;6.10;72.13;101817.50;5063885;28;20049;-68
2023/01/27 06:38:37;;;;;;;19.98;3.55;;;;;;;6.02;72.08;101809.78;5062960;28;20053;-69
2023/01/27 06:41:05;;;;;;;14.75;3.05;;;;;;;6.07;72.04;101818.03;5058820;28;20055;-69
2023/01/27 06:43:33;;;;;;;14.70;2.97;;;;;;;5.70;72.53;101819.75;5076904;28;20063;-70
2023/01/27 06:46:00;;;;;;;12.95;3.03;;;;;;;5.69;72.69;101816.19;5069044;28;20052;-69
2023/01/27 06:48:33;;;;;;;16.25;2.80;;;;;;;5.64;72.85;101815.28;5067292;28;20585;-70
2023/01/27 06:51:00;;;;;;;12.50;3.10;;;;;;;5.63;72.58;101814.47;5073109;28;20048;-67
2023/01/27 06:53:28;;;;;;;11.43;3.00;;;;;;;5.70;72.18;101812.38;5072815;28;20041;-68
2023/01/27 06:55:56;;;;;;;16.42;3.50;;;;;;;5.92;73.06;101817.88;5075316;28;20514;-68
2023/01/27 06:58:24;;;;;;;21.98;3.70;;;;;;;6.02;72.83;101815.25;5069447;28;20055;-68
2023/01/27 07:00:52;;;;;;;15.90;3.15;;;;;;;6.28;73.50;101810.84;5057789;28;20510;-68
2023/01/27 07:03:20;;;;;;;12.70;3.30;;;;;;;6.44;72.93;101808.03;5039432;28;20047;-69
2023/01/27 07:05:48;;;;;;;16.80;3.33;;;;;;;6.26;71.71;101811.13;5067843;28;20407;-68
2023/01/27 07:08:15;;;;;;;14.57;3.50;;;;;;;6.26;70.97;101815.78;5049483;28;20056;-68
2023/01/27 07:10:42;;;;;;;19.63;3.60;;;;;;;5.96;71.57;101824.47;5072849;28;20415;-68
2023/01/27 07:13:13;;;;;;;15.10;2.95;;;;;;;5.82;71.80;101825.09;5068916;28;20059;-68
2023/01/27 07:15:40;;;;;;;17.88;3.40;;;;;;;5.90;72.34;101822.75;5067481;28;20049;-68
2023/01/27 07:18:09;;;;;;;16.88;3.70;;;;;;;5.96;71.56;101829.13;5069387;28;20463;-68
2023/01/27 07:20:37;;;;;;;13.25;3.20;;;;;;;5.89;71.35;101825.75;5058523;28;20059;-67
2023/01/27 07:23:05;;;;;;;13.50;3.58;;;;;;;6.02;71.67;101817.13;5061306;28;20048;-67
2023/01/27 07:25:33;;;;;;;21.50;4.05;;;;;;;6.13;70.66;101824.38;5071266;28;20412;-67
2023/01/27 07:28:01;;;;;;;15.82;3.97;;;;;;;5.79;71.53;101837.34;5057745;28;20052;-67
2023/01/27 07:30:29;;;;;;;14.60;4.68;;;;;;;5.72;72.14;101834.81;5061455;28;20055;-67
2023/01/27 07:33:10;;;;;;;15.10;4.25;;;;;;;5.75;71.71;101828.03;5040810;28;20056;-67
2023/01/27 07:35:38;;;;;;;20.70;4.50;;;;;;;5.71;72.19;101838.63;5070658;28;20053;-67
2023/01/27 07:38:06;;;;;;;20.63;4.30;;;;;;;5.83;71.87;101830.34;5065504;28;20052;-67
2023/01/27 07:40:36;;;;;;;15.35;4.18;;;;;;;5.87;71.47;101831.47;5067972;28;20052;-67
2023/01/27 07:43:05;;;;;;;16.80;4.07;;;;;;;6.02;71.64;101834.38;5064005;28;20052;-67
2023/01/27 07:45:34;;;;;;;12.55;4.07;;;;;;;6.09;70.61;101839.66;5052116;28;20044;-68
2023/01/27 07:48:03;;;;;;;24.73;4.97;;;;;;;5.90;71.06;101854.72;5057869;28;20060;-66
2023/01/27 07:50:31;;;;;;;15.23;4.13;;;;;;;5.90;71.61;101858.31;5060601;28;20060;-66
2023/01/27 07:53:03;;;;;;;16.38;4.53;;;;;;;5.86;71.66;101853.63;5066105;28;20044;-67
2023/01/27 07:55:32;;;;;;;15.80;4.72;;;;;;;5.88;71.85;101874.13;5069795;28;20052;-67
2023/01/27 07:57:59;;;;;;;17.15;4.95;;;;;;;5.63;72.70;101854.66;5059744;28;20415;-68
2023/01/27 08:00:27;;;;;;;15.48;4.60;;;;;;;5.54;72.90;101862.44;5066215;28;20063;-66
2023/01/27 08:02:56;;;;;;;13.35;4.22;;;;;;;5.50;73.75;101858.56;5063480;28;20052;-67
2023/01/27 08:05:24;;;;;;;13.23;4.35;;;;;;;5.62;73.63;101864.75;5055573;28;20468;-67
2023/01/27 08:07:53;;;;;;;16.30;4.95;;;;;;;5.60;73.73;101866.91;5054928;28;20059;-67
2023/01/27 08:10:20;;;;;;;15.48;4.93;;;;;;;5.62;73.41;101866.66;5072186;28;20055;-67
2023/01/27 08:12:48;;;;;;;19.15;4.78;;;;;;;5.65;73.54;101875.16;5065762;28;20047;-68
2023/01/27 08:15:15;;;;;;;15.40;4.60;;;;;;;5.58;73.47;101871.78;5065754;28;20047;-68
2023/01/27 08:17:53;;;;;;;18.80;5.68;;;;;;;5.56;73.92;101865.75;5065574;28;20043;-68
2023/01/27 08:20:21;;;;;;;23.63;5.80;;;;;;;5.78;72.41;101873.97;5068462;28;20045;-67
2023/01/27 08:22:48;;;;;;;18.70;4.90;;;;;;;5.59;71.13;101878.09;5065127;28;20044;-67
2023/01/27 08:25:16;;;;;;;18.40;5.50;;;;;;;5.62;71.61;101869.38;5068398;28;20059;-67
2023/01/27 08:27:44;;;;;;;17.80;5.60;;;;;;;5.76;71.32;101876.13;5075274;28;20048;-68
2023/01/27 08:30:11;;;;;;;13.98;5.00;;;;;;;5.80;71.14;101868.25;5068247;28;20053;-67
2023/01/27 08:32:39;;;;;;;25.85;6.43;;;;;;;5.92;70.70;101878.03;5071880;28;20082;-67
2023/01/27 08:35:07;;;;;;;16.30;4.90;;;;;;;5.89;70.19;101873.06;5072706;28;20534;-67
2023/01/27 08:37:34;;;;;;;16.33;5.63;;;;;;;5.77;70.44;101885.16;5070892;28;20048;-67
2023/01/27 08:40:02;;;;;;;19.30;6.00;;;;;;;5.71;71.47;101884.28;5062765;28;20056;-68
2023/01/27 08:42:29;;;;;;;20.08;6.15;;;;;;;5.62;71.45;101899.44;5067339;28;20055;-67
2023/01/27 08:44:57;;;;;;;14.93;5.82;;;;;;;5.71;72.04;101881.53;5065601;28;20048;-67
2023/01/27 08:47:24;;;;;;;19.35;6.63;;;;;;;5.75;71.73;101875.28;5062534;28;20047;-68
2023/01/27 08:49:53;;;;;;;16.23;5.82;;;;;;;5.60;72.32;101887.94;5059588;28;20059;-67
2023/01/27 08:52:21;;;;;;;25.48;7.10;;;;;;;5.62;72.18;101880.31;5070017;28;20045;-67
2023/01/27 08:54:49;;;;;;;21.63;5.88;;;;;;;5.90;72.03;101877.44;5065596;28;20419;-67
2023/01/27 08:57:16;;;;;;;23.67;6.28;;;;;;;5.84;71.55;101881.19;5068692;28;20399;-68
2023/01/27 08:59:45;;;;;;;20.75;6.60;;;;;;;5.78;71.97;101890.38;5064848;28;20040;-67
2023/01/27 09:02:12;;;;;;;19.45;6.97;;;;;;;5.74;71.41;101881.84;5075951;28;20055;-67
2023/01/27 09:04:43;;;;;;;23.98;6.95;;;;;;;5.82;71.81;101893.44;5037902;28;20053;-65
2023/01/27 09:07:11;;;;;;;23.52;6.70;;;;;;;5.71;71.86;101900.66;5071827;28;20515;-69
2023/01/27 09:09:39;;;;;;;19.77;7.07;;;;;;;5.67;72.20;101911.28;5065035;28;20067;-67
2023/01/27 09:12:07;;;;;;;16.92;6.72;;;;;;;5.69;71.83;101892.72;5071760;28;20054;-67
2023/01/27 09:14:34;;;;;;;22.80;6.68;;;;;;;5.75;71.28;101902.63;5043105;28;20059;-67
2023/01/27 09:17:02;;;;;;;16.75;6.88;;;;;;;5.61;71.50;101906.00;5070421;28;20056;-66
2023/01/27 09:19:30;;;;;;;20.25;6.65;;;;;;;5.53;71.54;101915.44;5042508;28;20071;-67
2023/01/27 09:21:57;;;;;;;17.27;6.57;;;;;;;5.37;71.57;101907.28;5052885;28;20045;-66
2023/01/27 09:24:26;;;;;;;14.48;5.97;;;;;;;5.62;71.31;101897.53;5077505;28;20036;-66
2023/01/27 09:26:56;;;;;;;18.50;7.05;;;;;;;5.50;70.92;101915.97;5056699;28;20071;-67
2023/01/27 09:29:28;;;;;;;20.10;6.50;;;;;;;5.47;70.85;101924.63;5059588;28;20051;-66
2023/01/27 09:31:55;;;;;;;19.83;6.25;;;;;;;5.37;71.24;101920.94;5070653;28;20052;-65
2023/01/27 09:34:22;;;;;;;15.75;5.40;;;;;;;5.26;70.58;101909.03;5072512;28;20049;-65
2023/01/27 09:36:54;;;;;;;24.00;5.57;;;;;;;5.31;70.96;101916.47;5074679;28;20053;-64
2023/01/27 09:39:22;;;;;;;11.98;4.95;;;;;;;5.32;70.32;101913.47;5069306;28;20051;-64
2023/01/27 09:42:28;;;;;;;16.38;4.78;;;;;;;5.28;69.59;101915.06;5052779;28;20501;-64
2023/01/27 09:45:00;;;;;;;15.88;4.50;;;;;;;5.09;70.22;101926.50;5056609;28;20060;-66
2023/01/27 09:47:41;;;;;;;13.40;4.82;;;;;;;5.03;70.54;101927.47;5076242;28;20511;-64
2023/01/27 09:50:11;;;;;;;20.95;5.55;;;;;;;5.12;70.22;101923.25;5069941;28;20068;-64
2023/01/27 09:52:52;;;;;;;15.13;4.95;;;;;;;5.28;70.08;101933.38;5070119;28;20052;-64
2023/01/27 09:55:35;;;;;;;23.92;5.53;;;;;;;5.35;69.83;101932.09;5064659;28;20048;-64
2023/01/27 09:58:11;;;;;;;13.70;4.90;;;;;;;5.23;69.96;101936.00;5074742;28;20049;-64
2023/01/27 10:00:54;;;;;;;12.93;5.20;;;;;;;5.14;69.89;101937.50;5075900;28;20040;-64
2023/01/27 10:03:30;;;;;;;13.68;5.22;;;;;;;5.26;70.17;101941.81;5076223;28;20487;-64
2023/01/27 10:06:03;;;;;;;16.10;5.28;;;;;;;5.28;69.57;101933.38;5066522;28;20451;-64
2023/01/27 10:08:56;;;;;;;21.35;6.00;;;;;;;5.48;69.15;101930.94;5075011;28;20049;-65
2023/01/27 10:11:36;;;;;;;12.38;4.70;;;;;;;5.36;68.76;101927.47;5073175;28;20080;-64
2023/01/27 10:14:26;;;;;;;17.35;5.13;;;;;;;5.43;68.82;101950.81;5076676;28;20055;-64
2023/01/27 10:16:56;;;;;;;11.75;4.78;;;;;;;5.30;69.21;101936.69;5052620;28;20057;-65
2023/01/27 10:19:49;;;;;;;17.75;5.72;;;;;;;5.29;69.30;101940.47;5078590;28;20052;-65
2023/01/27 10:22:16;;;;;;;13.63;4.93;;;;;;;5.25;69.51;101931.94;5069386;28;20041;-65
2023/01/27 10:25:05;;;;;;;18.05;6.22;;;;;;;5.26;69.60;101930.06;5063753;28;20052;-65
2023/01/27 10:27:35;;;;;;;16.55;5.60;;;;;;;5.22;69.75;101945.28;5068442;28;20057;-64
2023/01/27 10:30:14;;;;;;;13.70;5.13;;;;;;;5.24;69.58;101941.22;5072719;28;20518;-65
2023/01/27 10:32:46;;;;;;;13.30;5.05;;;;;;;5.06;69.28;101948.81;5052128;28;20052;-64
2023/01/27 10:35:19;;;;;;;14.15;5.55;;;;;;;5.24;69.76;101940.38;5038501;28;20049;-65
2023/01/27 10:38:02;;;;;;;17.35;5.85;;;;;;;5.42;68.75;101940.16;5071923;28;20056;-64
2023/01/27 10:41:11;;;;;;;17.08;5.35;;;;;;;5.43;68.80;101948.09;5066173;28;20787;-65
2023/01/27 10:43:47;;;;;;;14.18;5.50;;;;;;;5.17;69.56;101943.28;5074043;28;20055;-65
2023/01/27 10:46:42;;;;;;;13.27;5.53;;;;;;;5.35;68.83;101958.63;5087920;28;20041;-65
2023/01/27 10:49:23;;;;;;;14.80;6.22;;;;;;;5.22;69.40;101934.34;5055368;28;20061;-64
2023/01/27 10:52:02;;;;;;;17.60;5.82;;;;;;;5.33;69.34;101949.84;5058723;28;20055;-66
2023/01/27 10:54:47;;;;;;;17.75;5.82;;;;;;;5.16;69.50;101946.28;5048439;28;20052;-65
2023/01/27 10:57:24;;;;;;;17.10;5.78;;;;;;;5.20;69.80;101945.53;5063923;28;20451;-65
2023/01/27 11:00:21;;;;;;;16.15;5.25;;;;;;;5.27;69.92;101943.47;5071214;28;20514;-66
2023/01/27 11:03:22;;;;;;;12.35;5.57;;;;;;;5.31;69.65;101954.72;5057615;28;20852;-64
2023/01/27 11:05:57;;;;;;;13.85;5.78;;;;;;;5.21;69.77;101940.91;5061745;28;20052;-64
2023/01/27 11:08:28;;;;;;;15.10;6.40;;;;;;;5.06;70.75;101948.81;5073644;28;20063;-65
2023/01/27 11:13:47;;;;;;;18.23;7.60;;;;;;;5.36;69.90;101939.22;5067245;28;20044;-65
2023/01/27 11:16:17;;;;;;;14.52;7.30;;;;;;;5.40;69.32;101940.41;5054543;28;20048;-65
2023/01/27 11:18:45;;;;;;;16.30;7.00;;;;;;;5.35;69.64;101939.50;5051563;28;20064;-65
2023/01/27 11:21:23;;;;;;;15.05;7.75;;;;;;;5.39;69.66;101951.56;5069397;28;20080;-64
2023/01/27 11:23:55;;;;;;;15.63;6.82;;;;;;;5.28;69.65;101923.25;5068470;28;20453;-64
2023/01/27 11:26:23;;;;;;;12.93;6.28;;;;;;;5.04;70.17;101929.16;5066804;28;20431;-65
2023/01/27 11:29:12;;;;;;;12.48;6.22;;;;;;;5.01;70.69;101943.28;5070735;28;20044;-66
2023/01/27 11:32:00;;;;;;;16.92;6.93;;;;;;;5.04;70.18;101921.75;5071240;28;20049;-66
2023/01/27 11:34:43;;;;;;;14.82;6.68;;;;;;;6.35;66.16;101913.56;5071097;28;20052;-66
2023/01/27 11:37:21;;;;;;;15.55;7.45;;;;;;;5.51;68.01;101924.97;5071666;28;20048;-68
2023/01/27 11:39:48;;;;;;;14.32;6.70;;;;;;;5.25;69.60;101931.94;5066547;28;20515;-66
2023/01/27 11:42:16;;;;;;;14.35;6.85;;;;;;;5.26;69.62;101921.84;5068384;28;20052;-65
2023/01/27 11:44:44;;;;;;;12.68;6.90;;;;;;;5.12;70.19;101920.53;5070437;28;20048;-68
2023/01/27 11:47:22;;;;;;;15.25;7.72;;;;;;;5.36;69.96;101897.41;5049242;28;20076;-64
2023/01/27 11:49:51;;;;;;;13.60;7.20;;;;;;;5.49;69.16;101895.16;5068211;28;20044;-66
2023/01/27 11:52:20;;;;;;;14.68;7.40;;;;;;;5.30;69.56;101909.38;5074075;28;20037;-69
2023/01/27 11:55:03;;;;;;;12.73;7.10;;;;;;;5.43;69.58;101909.00;5019299;28;20048;-65
2023/01/27 11:57:31;;;;;;;17.25;7.43;;;;;;;5.20;70.67;101904.56;5067779;28;20558;-65
2023/01/27 12:00:03;;;;;;;17.40;7.65;;;;;;;5.29;70.26;101905.78;5072414;28;20064;-65
2023/01/27 12:03:02;;;;;;;17.83;7.43;;;;;;;5.17;70.90;101906.94;5070256;28;20048;-66
2023/01/27 12:05:33;;;;;;;26.00;10.27;;;;;;;5.31;70.43;101932.84;5050819;28;20055;-67
2023/01/27 12:08:02;;;;;;;15.65;7.78;;;;;;;4.93;71.39;101930.03;5052736;28;20057;-68
2023/01/27 12:10:39;;;;;;;18.60;9.73;;;;;;;4.95;71.72;101925.16;5065232;28;20053;-68
2023/01/27 12:13:26;;;;;;;18.88;8.27;;;;;;;5.01;71.47;101911.34;5052018;28;20056;-66
2023/01/27 12:16:03;;;;;;;24.52;10.50;;;;;;;5.17;70.88;101902.31;5064030;28;20051;-67
2023/01/27 12:18:32;;;;;;;15.60;7.35;;;;;;;5.08;70.78;101902.97;5063733;28;20056;-65